Time;durP1;ratioP1;P1;durP2;ratioP2;P2;SDS_P1;SDS_P2;PMS_P1;PMS_P2;Temp;Humidity;BMP_temperature;BMP_pressure;BME280_temperature;BME280_humidity;BME280_pressure;Samples;Min_cycle;Max_cycle;Signal;HPM_P1;HPM_P2
2023/01/11 00:03:47;;;;;;;0.20;0.10;;;10.80;99.90;;;;;;21156553;28;20882;-70
2023/01/11 00:13:52;;;;;;;0.20;0.10;;;10.80;99.90;;;;;;21155222;28;20394;-71
2023/01/11 00:23:56;;;;;;;0.20;0.00;;;11.20;99.90;;;;;;21155735;28;20414;-70
2023/01/11 00:34:01;;;;;;;0.20;0.10;;;11.40;99.90;;;;;;21131877;28;20465;-70
2023/01/11 00:54:28;;;;;;;0.20;0.10;;;11.40;99.90;;;;;;21152044;28;20395;-70
2023/01/11 01:04:32;;;;;;;0.20;0.10;;;11.50;99.90;;;;;;21150545;28;20411;-71
2023/01/11 01:14:37;;;;;;;0.20;0.10;;;11.30;99.90;;;;;;21151648;28;20497;-70
2023/01/11 01:24:41;;;;;;;0.20;0.07;;;11.30;99.90;;;;;;21149827;28;20403;-70
2023/01/11 01:34:46;;;;;;;0.20;0.10;;;11.30;99.90;;;;;;21148365;28;20395;-70
2023/01/11 01:44:59;;;;;;;0.20;0.10;;;11.40;99.90;;;;;;21148588;28;20778;-69
2023/01/11 01:55:09;;;;;;;0.20;0.00;;;11.30;99.90;;;;;;21147492;28;20407;-69
2023/01/11 02:05:15;;;;;;;0.20;0.00;;;11.20;99.90;;;;;;21146730;28;20460;-69
2023/01/11 02:15:22;;;;;;;0.20;0.03;;;11.00;99.90;;;;;;21147548;28;20475;-69
2023/01/11 02:26:09;;;;;;;0.20;0.10;;;11.10;99.90;;;;;;21146975;28;20414;-69
2023/01/11 02:36:27;;;;;;;0.20;0.10;;;11.10;99.90;;;;;;21146205;28;20398;-70
2023/01/11 02:46:39;;;;;;;0.20;0.10;;;10.90;99.90;;;;;;21145185;28;20422;-71
2023/01/11 02:56:48;;;;;;;0.20;0.10;;;10.50;99.90;;;;;;21144907;28;20413;-69
2023/01/11 03:07:02;;;;;;;0.20;0.10;;;10.30;99.90;;;;;;21145267;28;20403;-70
2023/01/11 03:17:17;;;;;;;0.20;0.07;;;10.30;99.90;;;;;;21144987;28;20395;-70
2023/01/11 03:27:29;;;;;;;0.20;0.10;;;10.40;99.90;;;;;;21147631;28;20811;-70
2023/01/11 03:37:39;;;;;;;0.20;0.10;;;10.30;99.90;;;;;;21158563;28;20390;-70
2023/01/11 03:47:42;;;;;;;0.20;0.10;;;9.90;99.90;;;;;;21157207;28;20866;-69
2023/01/11 03:57:50;;;;;;;0.20;0.10;;;10.00;99.90;;;;;;21157844;28;20383;-68
2023/01/11 04:07:54;;;;;;;0.20;0.10;;;11.00;99.90;;;;;;21156843;28;20415;-69
2023/01/11 04:18:03;;;;;;;0.20;0.10;;;11.00;99.90;;;;;;21152400;28;20410;-69
2023/01/11 04:28:07;;;;;;;0.20;0.10;;;10.90;99.90;;;;;;21154594;28;20770;-69
2023/01/11 04:38:12;;;;;;;0.20;0.10;;;10.70;99.90;;;;;;21153926;28;20805;-69
2023/01/11 04:48:17;;;;;;;0.20;0.10;;;10.20;99.90;;;;;;21152337;28;20479;-70
2023/01/11 04:58:22;;;;;;;0.20;0.10;;;10.00;99.90;;;;;;21153026;28;20403;-69
2023/01/11 05:08:27;;;;;;;0.20;0.10;;;9.70;99.90;;;;;;21150700;28;21128;-69
2023/01/11 05:18:32;;;;;;;0.20;0.10;;;9.00;99.90;;;;;;21147276;27;20394;-69
2023/01/11 05:28:36;;;;;;;0.20;0.10;;;8.90;99.90;;;;;;21101641;28;20409;-68
2023/01/11 05:38:41;;;;;;;0.20;0.10;;;9.20;99.90;;;;;;21133847;28;20399;-68
2023/01/11 05:48:45;;;;;;;0.20;0.10;;;9.00;99.90;;;;;;21147613;28;20460;-68
2023/01/11 05:58:51;;;;;;;0.20;0.10;;;9.10;99.90;;;;;;21128634;28;20865;-69
2023/01/11 06:08:55;;;;;;;0.20;0.10;;;9.50;99.90;;;;;;21063039;28;20416;-68
2023/01/11 06:19:00;;;;;;;0.20;0.10;;;9.30;99.90;;;;;;21101659;28;21020;-70
2023/01/11 06:29:04;;;;;;;0.20;0.10;;;9.20;99.90;;;;;;21107510;28;20405;-69
2023/01/11 06:39:10;;;;;;;0.20;0.10;;;10.10;99.90;;;;;;21101913;28;20919;-69
2023/01/11 06:49:14;;;;;;;0.20;0.10;;;9.70;99.90;;;;;;21097103;28;20430;-67
2023/01/11 06:59:19;;;;;;;0.20;0.10;;;9.20;99.90;;;;;;21139151;28;20797;-72
2023/01/11 07:09:23;;;;;;;0.20;0.10;;;9.50;99.90;;;;;;21154237;28;20459;-71
2023/01/11 07:19:29;;;;;;;0.20;0.10;;;9.30;99.90;;;;;;21158689;28;20916;-71
2023/01/11 07:29:33;;;;;;;0.20;0.10;;;9.40;99.90;;;;;;21157276;28;20753;-71
2023/01/11 07:39:38;;;;;;;0.20;0.10;;;9.50;99.90;;;;;;21157192;28;20753;-68
2023/01/11 07:49:46;;;;;;;0.20;0.10;;;9.80;99.90;;;;;;21155025;28;20403;-70
2023/01/11 07:59:51;;;;;;;0.20;0.10;;;10.40;99.90;;;;;;21155631;28;20402;-69
2023/01/11 08:09:55;;;;;;;0.20;0.10;;;10.60;99.90;;;;;;21135770;28;20410;-69
2023/01/11 08:20:00;;;;;;;0.20;0.10;;;10.70;99.90;;;;;;21151892;28;20395;-69
2023/01/11 08:30:05;;;;;;;0.20;0.10;;;11.00;99.90;;;;;;21113063;28;20897;-69
2023/01/11 08:40:12;;;;;;;0.20;0.10;;;11.30;99.90;;;;;;21096498;28;20406;-68
2023/01/11 08:50:17;;;;;;;0.20;0.10;;;11.70;99.90;;;;;;21151379;28;20464;-69
2023/01/11 09:00:23;;;;;;;0.20;0.10;;;11.60;99.90;;;;;;21098125;28;20516;-70
2023/01/11 09:10:27;;;;;;;0.20;0.10;;;11.50;99.90;;;;;;21050942;28;20439;-69
2023/01/11 09:20:32;;;;;;;0.20;0.10;;;11.50;99.90;;;;;;21062160;28;20400;-70
2023/01/11 09:30:38;;;;;;;0.20;0.10;;;11.80;99.90;;;;;;21065567;28;20834;-69
2023/01/11 09:40:54;;;;;;;0.20;0.10;;;12.30;99.90;;;;;;21102028;28;20397;-70
2023/01/11 09:51:00;;;;;;;0.20;0.10;;;12.70;99.90;;;;;;21101562;28;20400;-70
2023/01/11 10:01:14;;;;;;;0.20;0.10;;;12.60;99.90;;;;;;21132398;28;20489;-69
2023/01/11 10:11:30;;;;;;;0.20;0.10;;;12.90;99.90;;;;;;21146129;28;20820;-69
2023/01/11 10:22:00;;;;;;;0.20;0.10;;;13.50;99.90;;;;;;21142099;28;20502;-70
2023/01/11 10:32:17;;;;;;;0.20;0.10;;;14.40;99.90;;;;;;21143714;28;20403;-71
2023/01/11 10:42:25;;;;;;;0.20;0.10;;;15.00;99.90;;;;;;21156418;28;20404;-69
2023/01/11 10:52:35;;;;;;;0.20;0.10;;;15.60;99.90;;;;;;21160294;27;20497;-67
2023/01/11 11:03:12;;;;;;;0.20;0.10;;;15.40;99.90;;;;;;21159912;28;20425;-70
2023/01/11 11:13:23;;;;;;;0.20;0.10;;;16.10;99.90;;;;;;21157188;28;20482;-70
2023/01/11 11:23:29;;;;;;;0.20;0.10;;;16.00;99.90;;;;;;21158274;28;20399;-70
2023/01/11 11:33:35;;;;;;;0.20;0.10;;;15.90;99.90;;;;;;21148867;28;20444;-69
2023/01/11 11:43:41;;;;;;;0.20;0.10;;;16.20;99.90;;;;;;21073403;28;20392;-69
2023/01/11 11:53:52;;;;;;;0.20;0.10;;;16.20;99.90;;;;;;21069354;28;20875;-72
2023/01/11 12:04:00;;;;;;;0.20;0.10;;;16.70;99.90;;;;;;21068729;28;20427;-71
2023/01/11 12:14:16;;;;;;;0.20;0.10;;;17.50;99.90;;;;;;21068565;28;20400;-70
2023/01/11 12:24:23;;;;;;;0.20;0.00;;;17.60;99.90;;;;;;21068787;28;20404;-70
2023/01/11 12:34:46;;;;;;;0.20;0.10;;;17.70;99.90;;;;;;21068247;28;20432;-69
2023/01/11 12:45:02;;;;;;;0.20;0.10;;;17.60;99.90;;;;;;21066405;28;20408;-69
2023/01/11 12:55:19;;;;;;;0.20;0.10;;;17.10;99.90;;;;;;21067010;28;20408;-70
2023/01/11 13:05:28;;;;;;;0.20;0.07;;;16.70;99.90;;;;;;21063534;28;20457;-70
2023/01/11 13:15:41;;;;;;;0.20;0.10;;;16.70;99.90;;;;;;21062844;28;20392;-71
2023/01/11 13:25:49;;;;;;;0.20;0.10;;;16.60;99.90;;;;;;21059164;28;20522;-71
2023/01/11 13:35:58;;;;;;;0.20;0.10;;;16.20;99.90;;;;;;21057957;28;20418;-70
2023/01/11 13:46:11;;;;;;;0.20;0.03;;;16.00;99.90;;;;;;21059083;28;20718;-70
2023/01/11 13:56:20;;;;;;;0.20;0.10;;;16.30;99.90;;;;;;21061362;28;20926;-70
2023/01/11 14:06:40;;;;;;;0.20;0.10;;;16.70;99.90;;;;;;21061685;28;20415;-70
2023/01/11 14:17:20;;;;;;;0.20;0.10;;;16.70;99.90;;;;;;21041864;28;20388;-70
2023/01/11 14:27:47;;;;;;;0.20;0.10;;;17.30;99.90;;;;;;21058379;28;20412;-70
2023/01/11 14:38:26;;;;;;;0.20;0.10;;;17.10;99.90;;;;;;21059422;28;20614;-70
2023/01/11 14:48:41;;;;;;;0.20;0.03;;;16.60;99.90;;;;;;21055117;28;20414;-70
2023/01/11 14:59:02;;;;;;;0.20;0.03;;;16.50;99.90;;;;;;21059934;28;20404;-77
2023/01/11 15:09:43;;;;;;;0.20;0.03;;;16.40;99.90;;;;;;21059421;28;20396;-70
2023/01/11 15:19:50;;;;;;;0.20;0.10;;;16.20;99.90;;;;;;21057040;28;21219;-70
2023/01/11 15:29:58;;;;;;;0.20;0.10;;;16.20;99.90;;;;;;21069328;28;20457;-69
2023/01/11 15:40:09;;;;;;;0.20;0.00;;;16.00;99.90;;;;;;21070978;28;20867;-69
2023/01/11 15:50:45;;;;;;;0.20;0.10;;;15.80;99.90;;;;;;21068487;28;21170;-69
2023/01/11 16:01:20;;;;;;;0.20;0.10;;;15.20;99.90;;;;;;21068611;28;20778;-70
2023/01/11 16:11:35;;;;;;;0.20;0.10;;;15.00;99.90;;;;;;21064172;28;20416;-70
2023/01/11 16:21:41;;;;;;;0.20;0.10;;;14.90;99.90;;;;;;21133406;28;20796;-69
2023/01/11 16:31:54;;;;;;;0.20;0.10;;;14.60;99.90;;;;;;21106397;28;20416;-70
2023/01/11 16:42:02;;;;;;;0.20;0.10;;;14.50;99.90;;;;;;21065346;28;20439;-70
2023/01/11 16:52:37;;;;;;;0.20;0.10;;;14.30;99.90;;;;;;21066442;28;20404;-70
2023/01/11 17:02:46;;;;;;;0.20;0.10;;;13.90;99.90;;;;;;21062976;28;20397;-69
2023/01/11 17:13:50;;;;;;;0.20;0.10;;;13.60;99.90;;;;;;21064038;28;20408;-70
2023/01/11 17:23:32;;;;;;;0.20;0.10;;;13.40;99.90;;;;;;21069450;28;20409;-70
2023/01/11 17:33:38;;;;;;;0.20;0.10;;;13.20;99.90;;;;;;21142814;28;20406;-71
2023/01/11 17:54:04;;;;;;;0.20;0.10;;;12.60;99.90;;;;;;21103376;28;20741;-70
2023/01/11 18:04:18;;;;;;;0.20;0.10;;;12.70;99.90;;;;;;21141961;28;20430;-73
2023/01/11 18:14:26;;;;;;;0.20;0.10;;;12.30;99.90;;;;;;21123513;28;20375;-70
2023/01/11 18:24:42;;;;;;;0.20;0.10;;;12.20;99.90;;;;;;21139393;28;20410;-71
2023/01/11 18:34:50;;;;;;;0.20;0.10;;;12.10;99.90;;;;;;21109647;28;20830;-71
2023/01/11 18:44:54;;;;;;;0.20;0.10;;;12.10;99.90;;;;;;21088243;28;20418;-71
2023/01/11 18:54:59;;;;;;;0.20;0.10;;;11.60;99.90;;;;;;21138061;28;20464;-71
2023/01/11 19:05:03;;;;;;;0.20;0.10;;;11.50;99.90;;;;;;21135622;28;20866;-70
2023/01/11 19:15:09;;;;;;;0.20;0.10;;;11.20;99.90;;;;;;21153348;28;20781;-70
2023/01/11 19:25:13;;;;;;;0.20;0.10;;;11.10;99.90;;;;;;21152167;28;20448;-72
2023/01/11 19:35:18;;;;;;;0.20;0.10;;;10.70;99.90;;;;;;21150954;28;20402;-71
2023/01/11 19:45:23;;;;;;;0.20;0.10;;;10.50;99.90;;;;;;21112887;28;20412;-71
2023/01/11 19:55:28;;;;;;;0.20;0.10;;;10.40;99.90;;;;;;21068473;28;20415;-71
2023/01/11 20:05:32;;;;;;;0.20;0.10;;;10.10;99.90;;;;;;21065985;28;20898;-72
2023/01/11 20:15:38;;;;;;;0.20;0.10;;;10.30;99.90;;;;;;21064894;28;20902;-70
2023/01/11 20:25:42;;;;;;;0.20;0.10;;;10.50;99.90;;;;;;21066554;28;20412;-70
2023/01/11 20:35:48;;;;;;;0.20;0.10;;;10.20;99.90;;;;;;21102119;28;20474;-70
2023/01/11 20:45:55;;;;;;;0.20;0.10;;;10.30;99.90;;;;;;21129233;28;20497;-71
2023/01/11 20:56:04;;;;;;;0.20;0.00;;;10.60;99.90;;;;;;21147377;28;20408;-72
2023/01/11 21:06:09;;;;;;;0.20;0.00;;;10.70;99.90;;;;;;21147622;28;20769;-72
2023/01/11 21:16:16;;;;;;;0.20;0.10;;;10.70;99.90;;;;;;21149904;28;20452;-71
2023/01/11 21:26:20;;;;;;;0.20;0.10;;;10.50;99.90;;;;;;21147916;28;20819;-73
2023/01/11 21:36:26;;;;;;;0.20;0.10;;;10.30;99.90;;;;;;21148867;28;20403;-72
2023/01/11 21:46:30;;;;;;;0.20;0.10;;;10.40;99.90;;;;;;21129217;28;20406;-71
2023/01/11 21:56:37;;;;;;;0.20;0.10;;;10.10;99.90;;;;;;21132515;27;20553;-71
2023/01/11 22:06:42;;;;;;;0.20;0.10;;;9.70;99.90;;;;;;21146676;28;20452;-72
2023/01/11 22:16:47;;;;;;;0.20;0.10;;;9.90;99.90;;;;;;21147040;28;20777;-72
2023/01/11 22:26:51;;;;;;;0.20;0.10;;;9.80;99.90;;;;;;21144713;28;20942;-71
2023/01/11 22:36:56;;;;;;;0.20;0.10;;;10.30;99.90;;;;;;21145120;28;20405;-71
2023/01/11 22:47:01;;;;;;;0.20;0.10;;;10.10;99.90;;;;;;21145796;28;20414;-73
2023/01/11 22:57:06;;;;;;;0.20;0.10;;;9.50;99.90;;;;;;21146285;28;20757;-73
2023/01/11 23:07:10;;;;;;;0.20;0.10;;;9.40;99.90;;;;;;21145264;28;20414;-71
2023/01/11 23:17:17;;;;;;;0.20;0.10;;;9.30;99.90;;;;;;21143800;28;20738;-72
2023/01/11 23:27:21;;;;;;;0.20;0.00;;;9.30;99.90;;;;;;21144395;28;20407;-72
2023/01/11 23:37:27;;;;;;;0.20;0.10;;;9.20;99.90;;;;;;21143728;28;20399;-71
2023/01/11 23:47:30;;;;;;;0.20;0.10;;;9.10;99.90;;;;;;21151420;28;20513;-72
2023/01/11 23:57:35;;;;;;;0.20;0.10;;;8.80;99.90;;;;;;21158613;28;20541;-72
